Terminal Aerodrome Forecast
Issued by NWS

Home | Current Version | Previous Version | Text Only | Print | Product List | Glossary On
Versions: 1 2 3 4 5 6 7 8 9 10 11 12 13 14 15 16 17 18 19 20 21 22 23 24 25 26 27 28 29 30 31 32 33 34 35 36 37 38 39 40 41 42 43 44 45 46 47 48 49 50
000
FTUS44 KHGX 240202 AAA
TAFLBX
TAF AMD
KLBX 240202Z 2402/2424 14008KT 6SM BR OVC006
     FM240900 15010KT 2SM BR VCSH SCT003 OVC006
     FM241600 17012KT P6SM OVC015
     FM241800 18018G27KT P6SM BKN025=

USA.gov is the U.S. government's official web portal to all federal, state and local government web resources and services.